Terminal Aerodrome Forecast
Issued by NWS Pueblo, CO

Home | Current Version | Previous Version | Text Only | Print | Product List | Glossary On
Versions: 1 2 3 4 5 6 7 8 9 10 11 12 13 14 15
000
FTUS45 KPUB 251120
TAFALS
TAF
KALS 251120Z 2512/2612 VRB06KT P6SM FEW110 SCT150
     FM252100 16010KT P6SM VCTS SCT080CB BKN150
     FM260500 VRB05KT P6SM FEW100 SCT150 BKN200=

USA.gov is the U.S. government's official web portal to all federal, state and local government web resources and services.